createdAt,value
2018-12-12T00:00:29.266Z,23.80
2018-12-12T00:02:59.481Z,23.80
2018-12-12T00:05:27.918Z,23.90
2018-12-12T00:07:56.452Z,23.90
2018-12-12T00:10:25.629Z,23.80
2018-12-12T00:12:54.376Z,23.70
2018-12-12T00:15:22.725Z,23.70
2018-12-12T00:17:52.882Z,23.80
2018-12-12T00:20:21.357Z,23.80
2018-12-12T00:22:49.814Z,23.80
2018-12-12T00:25:18.565Z,23.90
2018-12-12T00:27:47.249Z,23.60
2018-12-12T00:30:16.005Z,23.60
2018-12-12T00:32:44.793Z,23.60
2018-12-12T00:35:13.330Z,23.40
2018-12-12T00:37:42.105Z,23.40
2018-12-12T00:40:11.097Z,23.30
2018-12-12T00:42:39.849Z,23.30
2018-12-12T00:45:08.309Z,23.20
2018-12-12T00:47:37.175Z,23.10
2018-12-12T00:50:06.438Z,23.10
2018-12-12T00:52:35.049Z,23.00
2018-12-12T00:55:04.041Z,23.00
2018-12-12T00:57:33.036Z,23.00
2018-12-12T01:00:01.897Z,22.90
2018-12-12T01:02:30.645Z,22.90
2018-12-12T01:05:02.977Z,22.90
2018-12-12T01:07:31.742Z,22.80
2018-12-12T01:10:00.270Z,22.80
2018-12-12T01:12:28.911Z,22.70
2018-12-12T01:14:57.573Z,22.60
2018-12-12T01:17:26.125Z,22.60
2018-12-12T01:19:54.870Z,22.50
2018-12-12T01:22:23.801Z,22.50
2018-12-12T01:24:52.185Z,22.50
2018-12-12T01:27:20.793Z,22.50
2018-12-12T01:29:49.997Z,22.60
2018-12-12T01:32:18.421Z,22.60
2018-12-12T01:34:46.932Z,22.60
2018-12-12T01:37:16.481Z,22.60
2018-12-12T01:39:45.118Z,22.50
2018-12-12T01:42:13.878Z,22.40
2018-12-12T01:44:42.619Z,22.50
2018-12-12T01:47:11.901Z,22.40
2018-12-12T01:49:40.417Z,22.30
2018-12-12T01:52:09.286Z,22.40
2018-12-12T01:54:37.925Z,22.40
2018-12-12T01:57:06.316Z,22.40
2018-12-12T01:59:35.268Z,22.40
2018-12-12T02:02:03.934Z,22.40
2018-12-12T02:04:32.613Z,22.20
2018-12-12T02:07:03.056Z,22.30
2018-12-12T02:09:31.457Z,22.20
2018-12-12T02:12:00.216Z,22.30
2018-12-12T02:14:31.825Z,22.10
2018-12-12T02:17:00.937Z,22.10
2018-12-12T02:19:29.409Z,22.00
2018-12-12T02:21:58.601Z,22.10
2018-12-12T02:24:27.445Z,22.10
2018-12-12T02:26:56.053Z,22.00
2018-12-12T02:29:24.570Z,22.00
2018-12-12T02:31:53.196Z,22.00
2018-12-12T02:34:21.810Z,21.90
2018-12-12T02:36:51.061Z,21.90
2018-12-12T02:39:20.548Z,21.90
2018-12-12T02:41:49.072Z,22.00
2018-12-12T02:44:18.065Z,21.90
2018-12-12T02:46:46.545Z,21.80
2018-12-12T02:49:15.029Z,21.90
2018-12-12T02:51:44.052Z,21.90
2018-12-12T02:54:12.774Z,21.90
2018-12-12T02:56:41.232Z,21.90
2018-12-12T02:59:10.206Z,21.90
2018-12-12T03:01:38.800Z,21.90
2018-12-12T03:04:07.285Z,21.90
2018-12-12T03:06:37.000Z,22.00
2018-12-12T03:09:15.017Z,22.00
2018-12-12T03:11:43.890Z,22.10
2018-12-12T03:14:12.637Z,22.00
2018-12-12T03:16:41.120Z,22.20
2018-12-12T03:19:09.954Z,22.30
2018-12-12T03:21:38.537Z,22.30
2018-12-12T03:24:07.156Z,22.30
2018-12-12T03:26:36.048Z,22.40
2018-12-12T03:29:04.573Z,22.80
2018-12-12T03:31:33.272Z,23.90
2018-12-12T03:34:02.000Z,25.10
2018-12-12T03:36:30.539Z,26.30
2018-12-12T03:38:59.140Z,27.00
2018-12-12T03:41:28.138Z,28.00
2018-12-12T03:43:56.860Z,28.90
2018-12-12T03:46:25.254Z,30.00
2018-12-12T03:48:54.111Z,30.50
2018-12-12T03:51:22.680Z,31.10
2018-12-12T03:53:51.432Z,30.90
2018-12-12T03:56:20.442Z,31.50
2018-12-12T03:58:49.217Z,31.60
2018-12-12T04:01:17.750Z,31.70
2018-12-12T04:03:46.501Z,32.40
2018-12-12T04:06:15.605Z,31.40
2018-12-12T04:08:44.285Z,29.50
2018-12-12T04:11:14.093Z,28.10
2018-12-12T04:13:42.685Z,27.40
2018-12-12T04:16:11.398Z,27.20
2018-12-12T04:18:40.293Z,26.90
2018-12-12T04:21:08.720Z,26.90
2018-12-12T04:23:37.257Z,26.80
2018-12-12T04:26:06.250Z,26.60
2018-12-12T04:28:34.998Z,26.50
2018-12-12T04:31:03.581Z,26.70
2018-12-12T04:33:32.497Z,26.70
2018-12-12T04:36:01.079Z,26.70
2018-12-12T04:38:29.622Z,26.70
2018-12-12T04:40:58.140Z,26.90
2018-12-12T04:43:26.725Z,26.80
2018-12-12T04:45:55.310Z,26.70
2018-12-12T04:48:24.334Z,26.90
2018-12-12T04:50:53.057Z,27.30
2018-12-12T04:53:21.459Z,27.80
2018-12-12T04:55:50.401Z,27.90
2018-12-12T04:58:18.957Z,27.60
2018-12-12T05:00:47.941Z,27.50
2018-12-12T05:03:16.865Z,27.30
2018-12-12T05:05:45.594Z,27.40
2018-12-12T05:08:13.998Z,27.70
2018-12-12T05:10:42.870Z,27.80
2018-12-12T05:13:11.934Z,27.80
2018-12-12T05:15:40.483Z,27.90
2018-12-12T05:18:09.396Z,27.90
2018-12-12T05:20:38.149Z,28.00
2018-12-12T05:23:06.630Z,28.10
2018-12-12T05:25:35.701Z,28.00
2018-12-12T05:28:04.233Z,28.00
2018-12-12T05:30:33.013Z,28.20
2018-12-12T05:33:02.109Z,28.30
2018-12-12T05:35:30.786Z,28.30
2018-12-12T05:37:59.322Z,28.10
2018-12-12T05:40:28.305Z,28.20
2018-12-12T05:42:56.861Z,28.00
2018-12-12T05:45:25.544Z,28.10
2018-12-12T05:47:54.294Z,28.20
2018-12-12T05:50:22.748Z,28.20
2018-12-12T05:52:51.373Z,28.20
2018-12-12T05:55:20.326Z,28.30
2018-12-12T05:57:49.049Z,28.50
2018-12-12T06:00:17.447Z,28.50
2018-12-12T06:02:46.284Z,28.80
2018-12-12T06:05:14.871Z,29.00
2018-12-12T06:07:43.595Z,29.20
2018-12-12T06:10:12.113Z,29.20
2018-12-12T06:12:40.698Z,29.20
2018-12-12T06:15:09.702Z,29.10
2018-12-12T06:17:38.588Z,29.00
2018-12-12T06:20:07.785Z,29.00
2018-12-12T06:22:37.861Z,28.80
2018-12-12T06:25:07.135Z,28.90
2018-12-12T06:27:35.858Z,29.10
2018-12-12T06:30:05.565Z,29.20
2018-12-12T06:32:35.648Z,29.20
2018-12-12T06:35:05.241Z,29.30
2018-12-12T06:37:33.921Z,29.20
2018-12-12T06:40:02.915Z,29.00
2018-12-12T06:42:31.593Z,29.20
2018-12-12T06:45:00.821Z,29.30
2018-12-12T06:47:30.028Z,29.00
2018-12-12T06:49:58.793Z,28.60
2018-12-12T06:52:27.305Z,28.70
2018-12-12T06:54:56.173Z,29.10
2018-12-12T06:57:25.379Z,29.20
2018-12-12T06:59:54.052Z,29.10
2018-12-12T07:02:22.953Z,28.80
2018-12-12T07:04:51.623Z,28.70
2018-12-12T07:07:20.241Z,28.60
2018-12-12T07:09:49.075Z,29.10
2018-12-12T07:12:17.593Z,29.00
2018-12-12T07:14:46.280Z,28.70
2018-12-12T07:17:16.057Z,28.60
2018-12-12T07:19:44.496Z,28.80
2018-12-12T07:22:13.221Z,29.10
2018-12-12T07:24:41.748Z,29.00
2018-12-12T07:27:10.333Z,28.60
2018-12-12T07:29:38.941Z,28.50
2018-12-12T07:32:08.037Z,28.60
2018-12-12T07:34:36.664Z,29.20
2018-12-12T07:37:05.048Z,29.20
2018-12-12T07:39:33.874Z,29.00
2018-12-12T07:42:02.482Z,29.00
2018-12-12T07:44:31.232Z,29.50
2018-12-12T07:47:00.183Z,29.60
2018-12-12T07:49:28.660Z,29.60
2018-12-12T07:51:57.229Z,29.50
2018-12-12T07:54:26.220Z,29.50
2018-12-12T07:56:54.950Z,29.60
2018-12-12T07:59:23.445Z,29.70
2018-12-12T08:01:52.265Z,29.00
2018-12-12T08:04:20.846Z,28.80
2018-12-12T08:06:49.518Z,28.80
2018-12-12T08:09:18.395Z,28.70
2018-12-12T08:11:46.904Z,29.10
2018-12-12T08:14:15.385Z,29.30
2018-12-12T08:16:44.387Z,29.40
2018-12-12T08:19:14.609Z,29.60
2018-12-12T08:21:43.120Z,29.70
2018-12-12T08:24:12.086Z,29.30
2018-12-12T08:26:40.594Z,28.90
2018-12-12T08:29:09.343Z,28.90
2018-12-12T08:31:38.099Z,28.90
2018-12-12T08:34:06.633Z,28.80
2018-12-12T08:36:35.244Z,28.80
2018-12-12T08:39:05.137Z,28.70
2018-12-12T08:41:33.775Z,29.00
2018-12-12T08:44:02.329Z,29.00
2018-12-12T08:46:31.402Z,29.10
2018-12-12T08:49:00.173Z,28.90
2018-12-12T08:51:28.645Z,28.80
2018-12-12T08:53:57.561Z,29.30
2018-12-12T08:56:26.179Z,29.00
2018-12-12T08:58:54.898Z,28.80
2018-12-12T09:01:24.081Z,28.80
2018-12-12T09:03:52.888Z,28.90
2018-12-12T09:06:21.599Z,29.00
2018-12-12T09:08:50.129Z,28.80
2018-12-12T09:11:18.709Z,28.90
2018-12-12T09:13:47.430Z,28.70
2018-12-12T09:16:16.221Z,28.80
2018-12-12T09:18:44.668Z,28.80
2018-12-12T09:21:15.818Z,28.80
2018-12-12T09:23:44.641Z,28.70
2018-12-12T09:26:13.161Z,28.80
2018-12-12T09:28:41.774Z,29.00
2018-12-12T09:31:10.737Z,28.80
2018-12-12T09:33:39.491Z,28.80
2018-12-12T09:36:07.886Z,28.90
2018-12-12T09:38:36.733Z,28.90
2018-12-12T09:41:05.314Z,28.90
2018-12-12T09:43:34.331Z,28.90
2018-12-12T09:46:04.809Z,28.70
2018-12-12T09:48:33.560Z,28.80
2018-12-12T09:51:07.051Z,29.00
2018-12-12T09:53:33.324Z,29.20
2018-12-12T09:56:01.899Z,29.00
2018-12-12T09:58:30.425Z,28.80
2018-12-12T10:00:59.294Z,28.70
2018-12-12T10:03:31.195Z,28.80
2018-12-12T10:05:58.633Z,28.40
2018-12-12T10:08:27.809Z,28.50
2018-12-12T10:10:56.558Z,28.70
2018-12-12T10:13:24.951Z,28.50
2018-12-12T10:15:53.898Z,28.30
2018-12-12T10:18:22.482Z,28.60
2018-12-12T10:20:51.205Z,28.80
2018-12-12T10:23:22.190Z,28.90
2018-12-12T10:25:50.755Z,28.80
2018-12-12T10:28:19.237Z,28.60
2018-12-12T10:30:48.210Z,28.30
2018-12-12T10:33:16.729Z,28.50
2018-12-12T10:35:45.413Z,28.70
2018-12-12T10:38:14.409Z,28.40
2018-12-12T10:40:42.866Z,28.00
2018-12-12T10:43:11.481Z,28.10
2018-12-12T10:45:40.579Z,28.40
2018-12-12T10:48:09.263Z,28.30
2018-12-12T10:50:38.014Z,28.40
2018-12-12T10:53:06.781Z,28.10
2018-12-12T10:55:35.122Z,28.10
2018-12-12T10:58:03.806Z,28.20
2018-12-12T11:00:34.605Z,28.20
2018-12-12T11:03:08.685Z,28.10
2018-12-12T11:05:45.475Z,28.20
2018-12-12T11:08:14.046Z,28.00
2018-12-12T11:10:42.770Z,28.10
2018-12-12T11:13:11.433Z,28.20
2018-12-12T11:15:39.982Z,28.00
2018-12-12T11:18:08.565Z,28.00
2018-12-12T11:20:37.659Z,28.00
2018-12-12T11:23:06.409Z,27.80
2018-12-12T11:25:35.677Z,27.90
2018-12-12T11:28:04.641Z,28.00
2018-12-12T11:30:33.420Z,28.10
2018-12-12T11:33:01.845Z,28.10
2018-12-12T11:35:30.606Z,28.20
2018-12-12T11:37:59.294Z,28.20
2018-12-12T11:40:28.042Z,28.00
2018-12-12T11:42:56.569Z,28.00
2018-12-12T11:45:25.154Z,27.90
2018-12-12T11:47:53.938Z,27.80
2018-12-12T11:50:22.827Z,27.70
2018-12-12T11:52:51.604Z,27.60
2018-12-12T11:55:20.074Z,27.60
2018-12-12T11:57:48.933Z,27.60
2018-12-12T12:00:17.585Z,27.50
2018-12-12T12:02:46.330Z,27.50
2018-12-12T12:05:15.015Z,27.50
2018-12-12T12:07:43.541Z,27.60
